Latest Coastal Weather Observations for Sydney Harbour

IDN60701

Issued at 6:32 pm EDT Tuesday 3 March 2015 (issued every 10 minutes, with the page automatically refreshed every 10 minutes)

About coastal observations | Map of coastal stations | Coastal observations for NSW | Marine services | Other Formats
Station Details ID: 066196 Name: WEDDING CAKE WEST Lat: -33.84 Lon: 151.26 Height: 6.0 m
Data from the previous 72 hours. | See also: Recent months for locations in New South Wales
Date/Time
EDT
Temp

°C
Wind Pressure Rain
since 9am
mm
Weather Cloud Vis
km
Sea
Height
m
Swell
Dir
 
Speed
knots
Gust
knots
hPa Trend Height
m
Period
s
Dir
03/06:30pm 22.9 NE 11 13 - - - - - - - - - -
03/06:00pm 22.9 NE 10 13 - - - - - - - - - -
03/05:30pm 22.9 NE 13 15 - - - - - - - - - -
03/05:00pm 22.7 NE 14 17 - - - - - - - - - -
03/04:30pm 22.9 NE 14 16 - - - - - - - - - -
03/04:00pm 22.7 NE 14 17 - - - - - - - - - -
03/03:30pm 22.6 NE 16 18 - - - - - - - - - -
03/03:00pm 22.5 NE 16 18 - - - - - - - - - -
03/02:30pm 22.6 NE 17 19 - - - - - - - - - -
03/02:00pm 22.5 NE 16 18 - - - - - - - - - -
03/01:30pm 22.3 ENE 15 18 - - - - - - - - - -
03/01:00pm 22.2 ENE 13 15 - - - - - - - - - -
03/12:30pm 22.2 ENE 12 14 - - - - - - - - - -
03/12:00pm 22.9 NE 11 13 - - - - - - - - - -
03/11:30am 23.0 NE 10 12 - - - - - - - - - -
03/11:00am 22.9 NE 9 10 - - - - - - - - - -
03/10:30am 23.1 N 6 8 - - - - - - - - - -
03/10:00am 22.1 NNW 8 12 - - - - - - - - - -
03/09:30am 21.9 NNW 7 10 - - - - - - - - - -
03/09:00am 21.1 NNW 5 7 - - - - - - - - - -
03/08:30am 20.6 NNW 6 8 - - - - - - - - - -
03/08:00am 20.3 WNW 6 8 - - - - - - - - - -
03/07:30am 19.9 NW 3 6 - - - - - - - - - -
03/07:00am 19.5 WNW 8 10 - - - - - - - - - -
03/06:30am 18.6 W 3 5 - - - - - - - - - -
03/06:00am 19.2 CALM 0 0 - - - - - - - - - -
03/05:30am 19.3 CALM 0 0 - - - - - - - - - -
03/05:00am 18.9 W 3 5 - - - - - - - - - -
03/04:30am 19.2 W 2 3 - - - - - - - - - -
03/04:00am 18.9 W 1 4 - - - - - - - - - -
03/03:30am 19.6 W 3 4 - - - - - - - - - -
03/03:00am 19.2 W 2 4 - - - - - - - - - -
03/02:30am 19.9 CALM 0 0 - - - - - - - - - -
03/02:00am 19.5 W 2 4 - - - - - - - - - -
03/01:30am 19.6 N 4 6 - - - - - - - - - -
03/01:00am 20.0 N 4 5 - - - - - - - - - -
03/12:30am 20.3 CALM 0 0 - - - - - - - - - -
03/12:00am 20.5 N 3 5 - - - - - - - - - -
 
Date/Time
EDT
Temp

°C
Wind Pressure Rain
since 9am
mm
Weather Cloud Vis
km
Sea
Height
m
Swell
Dir
 
Speed
knots
Gust
knots
hPa Trend Height
m
Period
s
Dir
02/11:30pm 20.8 N 5 6 - - - - - - - - - -
02/11:00pm 21.1 N 6 6 - - - - - - - - - -
02/10:30pm 21.5 N 6 8 - - - - - - - - - -
02/10:00pm 22.1 NNE 9 11 - - - - - - - - - -
02/09:30pm 22.0 NNE 10 11 - - - - - - - - - -
02/09:00pm 22.1 NE 10 11 - - - - - - - - - -
02/08:30pm 22.3 NE 9 12 - - - - - - - - - -
02/08:00pm 22.4 NE 10 12 - - - - - - - - - -
02/07:30pm 22.4 ENE 9 11 - - - - - - - - - -
02/07:00pm 22.4 ENE 7 9 - - - - - - - - - -
02/06:30pm 22.4 E 7 9 - - - - - - - - - -
02/06:00pm 22.5 E 8 9 - - - - - - - - - -
02/05:30pm 22.5 E 10 11 - - - - - - - - - -
02/05:00pm 22.5 ENE 9 11 - - - - - - - - - -
02/04:30pm 22.6 E 10 12 - - - - - - - - - -
02/04:00pm 22.7 E 9 12 - - - - - - - - - -
02/03:30pm 22.8 ESE 9 13 - - - - - - - - - -
02/03:00pm 22.5 SE 7 13 - - - - - - - - - -
02/02:30pm 21.5 S 12 15 - - - - - - - - - -
02/02:00pm 21.1 S 13 17 - - - - - - - - - -
02/01:30pm 21.2 S 13 17 - - - - - - - - - -
02/01:00pm 21.3 S 12 17 - - - - - - - - - -
02/12:30pm 21.3 S 12 17 - - - - - - - - - -
02/12:00pm 21.4 S 14 17 - - - - - - - - - -
02/11:30am 20.9 S 15 18 - - - - - - - - - -
02/11:00am 21.1 S 15 19 - - - - - - - - - -
02/10:30am 20.9 SSW 15 20 - - - - - - - - - -
02/10:00am 20.4 SSW 17 21 - - - - - - - - - -
02/09:30am 20.3 SSW 17 21 - - - - - - - - - -
02/09:00am 19.9 SSW 16 19 - - - - - - - - - -
02/08:30am 19.7 SW 18 22 - - - - - - - - - -
02/08:00am 19.5 SW 15 18 - - - - - - - - - -
02/07:30am 19.4 SW 14 19 - - - - - - - - - -
02/07:00am 19.4 SW 15 18 - - - - - - - - - -
02/06:30am 19.2 SW 14 17 - - - - - - - - - -
02/06:00am 19.5 SW 14 17 - - - - - - - - - -
02/05:30am 19.9 SW 16 19 - - - - - - - - - -
02/05:00am 20.0 SW 16 19 - - - - - - - - - -
02/04:30am 20.2 SW 15 19 - - - - - - - - - -
02/04:00am 21.9 S 15 19 - - - - - - - - - -
02/03:30am 22.0 SSE 14 19 - - - - - - - - - -
02/03:00am 22.0 S 14 18 - - - - - - - - - -
02/02:30am 21.8 S 14 19 - - - - - - - - - -
02/02:00am 21.8 S 16 21 - - - - - - - - - -
02/01:30am 21.8 S 15 20 - - - - - - - - - -
02/01:00am 21.8 SSE 18 24 - - - - - - - - - -
02/12:30am 21.7 S 16 24 - - - - - - - - - -
02/12:00am 21.8 SSE 19 29 - - - - - - - - - -
 
Date/Time
EDT
Temp

°C
Wind Pressure Rain
since 9am
mm
Weather Cloud Vis
km
Sea
Height
m
Swell
Dir
 
Speed
knots
Gust
knots
hPa Trend Height
m
Period
s
Dir
01/11:59pm 21.9 S 19 29 - - - - - - - - - -
01/11:30pm 21.9 S 19 26 - - - - - - - - - -
01/11:00pm 22.1 S 21 27 - - - - - - - - - -
01/10:52pm 22.1 S 20 30 - - - - - - - - - -
01/10:30pm 22.4 S 22 30 - - - - - - - - - -
01/10:00pm 22.5 S 21 31 - - - - - - - - - -
01/09:30pm 22.4 S 24 34 - - - - - - - - - -
01/09:27pm 22.4 S 24 34 - - - - - - - - - -
01/09:00pm 22.4 S 22 31 - - - - - - - - - -
01/08:35pm 22.2 S 19 30 - - - - - - - - - -
01/08:30pm 21.9 S 20 29 - - - - - - - - - -
01/08:00pm 21.0 S 24 33 - - - - - - - - - -
01/07:33pm 21.1 S 25 35 - - - - - - - - - -
01/07:30pm 21.3 S 25 30 - - - - - - - - - -
01/07:03pm 21.6 S 24 35 - - - - - - - - - -
01/07:00pm 21.8 S 23 31 - - - - - - - - - -
01/06:41pm 21.9 S 25 36 - - - - - - - - - -
01/06:30pm 22.1 S 24 32 - - - - - - - - - -
01/06:00pm 22.2 S 21 27 - - - - - - - - - -
01/05:39pm 21.8 SSE 22 32 - - - - - - - - - -
01/05:30pm 21.1 S 25 32 - - - - - - - - - -
01/05:27pm 21.2 SSW 26 33 - - - - - - - - - -
01/05:24pm 21.3 SSW 27 37 - - - - - - - - - -
01/05:12pm 22.5 SSW 22 35 - - - - - - - - - -
01/05:10pm 22.5 SSW 20 34 - - - - - - - - - -
01/05:00pm 22.7 SSW 22 29 - - - - - - - - - -
01/04:54pm 22.8 SSW 21 27 - - - - - - - - - -
01/04:30pm 22.5 S 22 29 - - - - - - - - - -
01/04:00pm 24.2 S 27 47 - - - - - - - - - -
01/03:54pm 24.5 S 17 47 - - - - - - - - - -
01/03:52pm 25.2 ESE 13 34 - - - - - - - - - -
01/03:30pm 25.2 NNE 14 17 - - - - - - - - - -
01/03:00pm 25.7 NNE 14 17 - - - - - - - - - -
01/02:30pm 27.0 NE 9 13 - - - - - - - - - -
01/02:00pm 25.9 NNE 14 16 - - - - - - - - - -
01/01:30pm 26.2 NNE 10 13 - - - - - - - - - -
01/01:00pm 26.6 NNE 9 14 - - - - - - - - - -
01/12:30pm 27.8 NNE 8 11 - - - - - - - - - -
01/12:00pm 28.8 NNE 9 11 - - - - - - - - - -
01/11:30am 26.4 NNE 11 13 - - - - - - - - - -
01/11:00am 24.9 NNE 12 14 - - - - - - - - - -
01/10:30am 24.2 NNE 10 12 - - - - - - - - - -
01/10:00am 23.8 NNE 10 11 - - - - - - - - - -
01/09:30am 23.7 NNE 8 10 - - - - - - - - - -
01/09:00am 23.3 NNE 9 10 - - - - - - - - - -
01/08:30am 22.9 N 7 10 - - - - - - - - - -
01/08:00am 22.2 N 5 6 - - - - - - - - - -
01/07:30am 22.2 N 7 9 - - - - - - - - - -
01/07:00am 21.9 N 6 7 - - - - - - - - - -
01/06:30am 22.0 NNE 7 8 - - - - - - - - - -
01/06:00am 21.8 N 6 8 - - - - - - - - - -
01/05:30am 22.0 N 7 8 - - - - - - - - - -
01/05:00am 22.2 N 7 8 - - - - - - - - - -
01/04:30am 22.3 NNE 6 7 - - - - - - - - - -
01/04:00am 22.0 NNE 4 5 - - - - - - - - - -
01/03:30am 22.1 NNE 5 6 - - - - - - - - - -
01/03:00am 22.2 NNE 5 5 - - - - - - - - - -
01/02:30am 22.7 NNE 4 6 - - - - - - - - - -
01/02:00am 22.6 NNE 4 5 - - - - - - - - - -
01/01:30am 22.6 NNE 1 5 - - - - - - - - - -
01/01:00am 22.9 CALM 0 0 - - - - - - - - - -
01/12:30am 23.0 NNE 3 5 - - - - - - - - - -
01/12:00am 23.2 NNE 6 7 - - - - - - - - - -
 
Date/Time
EDT
Temp

°C
Wind Pressure Rain
since 9am
mm
Weather Cloud Vis
km
Sea
Height
m
Swell
Dir
 
Speed
knots
Gust
knots
hPa Trend Height
m
Period
s
Dir
28/11:30pm 23.4 NNE 7 9 - - - - - - - - - -
28/11:00pm 23.4 N 13 15 - - - - - - - - - -
28/10:30pm 23.6 NNE 17 21 - - - - - - - - - -
28/10:00pm 23.7 NNE 18 22 - - - - - - - - - -
28/09:30pm 23.7 NNE 19 24 - - - - - - - - - -
28/09:00pm 23.7 NNE 18 21 - - - - - - - - - -
28/08:30pm 23.7 NNE 16 19 - - - - - - - - - -
28/08:00pm 23.7 NNE 14 17 - - - - - - - - - -
28/07:30pm 23.7 NNE 14 17 - - - - - - - - - -
28/07:00pm 23.8 NNE 15 19 - - - - - - - - - -

Other Formats:

Comma delimited format used in spreadsheet applications
http://www.bom.gov.au/fwo/IDN60701/IDN60701.95766.axf

JavaScript Object Notation format (JSON) in row-major order
http://www.bom.gov.au/fwo/IDN60701/IDN60701.95766.json